map of NOS home
NOS - Airport
Location
City:  Nosy-Bé, Madagascar
Near (Alt.):Nossi-be
Name:Fascène
ICAO:FMNN
IATA:NOS

Details
Type:Airport (Aerodrome, Airfield)
Use:International (customs port of entry)
Latitude:13°18'43"S (-13.312066)
Longitude:48°18'53"E (48.314822)
Datum:WGS 1984
Elevation:36 ft (11 m)
Variation:9.48°W (WMM2015 magnetic declination)
-0.01° annual change
Runways:1
Longest:7185 × 148 ft (2190 × 45 m), paved

Time
Time Zone:UTC+3
Local Time:

Weather
METAR:FMNN 191500Z 22002KT 9999 BKN020 27/23 Q1013
TAF:FMNN 191100Z 1912/2012 28008KT 9999 BKN020 PROB40
TEMPO 1919/2001 VRB15G25KT 4000 TSRA

Related Locations
Nearby:
Farthest:MMCD: 10971 mi / 17655 km
Cedros [Isla de Cedros Airport], Isla de Cedros, BCN, MX

Find:

   beyond  
but within

Other Information
Maps:
NOTAMs:
Links:
Sources:

  
  • flag of Madagascar
  

Sectional Chart

Flight Planning
at skyvector.com

Satellite Image

Google Maps Satellite view

 

Copyright © 2004-2018 Karl L. Swartz. All rights reserved.
The Great Circle Mapper name and logo are trademarks of the Great Circle Mapper.
All other trademarks mentioned herein belong to their respective owners.
Please see credits for attibutions and further copyright information.

  Follow gcmap on Facebook Follow gcmap on Twitter Follow gcmap on Google+ GCmap on LinkedIn

hCard Microformat

Geo Microformat